Time;durP1;ratioP1;P1;durP2;ratioP2;P2;SDS_P1;SDS_P2;PMS_P1;PMS_P2;Temp;Humidity;BMP_temperature;BMP_pressure;BME280_temperature;BME280_humidity;BME280_pressure;Samples;Min_cycle;Max_cycle;Signal;HPM_P1;HPM_P2
2023/12/14 00:01:41;;;;;;;19.70;17.63;;;;;;;6.52;96.79;91786.00;5110973;28;20190;-71
2023/12/14 00:04:07;;;;;;;20.70;18.70;;;;;;;6.65;95.98;91800.13;5110328;28;20223;-71
2023/12/14 00:06:32;;;;;;;27.87;18.17;;;;;;;6.63;96.17;91784.06;5110348;28;20206;-70
2023/12/14 00:08:58;;;;;;;19.57;17.30;;;;;;;6.01;98.61;91784.09;5110435;28;20986;-71
2023/12/14 00:11:23;;;;;;;20.47;18.40;;;;;;;6.50;97.03;91774.38;5110714;28;20636;-71
2023/12/14 00:13:49;;;;;;;21.00;18.13;;;;;;;6.32;97.09;91775.03;5110250;28;20216;-71
2023/12/14 00:16:14;;;;;;;19.70;17.60;;;;;;;6.34;97.78;91806.63;5110621;28;20202;-71
2023/12/14 00:18:39;;;;;;;18.67;16.77;;;;;;;6.40;97.25;91813.31;5109728;28;20230;-71
2023/12/14 00:21:05;;;;;;;19.33;17.27;;;;;;;6.55;96.32;91815.81;5110734;28;20188;-70
2023/12/14 00:23:30;;;;;;;18.90;17.07;;;;;;;6.37;97.13;91785.34;5109856;28;20236;-71
2023/12/14 00:25:56;;;;;;;20.00;18.03;;;;;;;6.02;99.30;91803.78;5110598;28;20203;-71
2023/12/14 00:28:22;;;;;;;18.13;16.43;;;;;;;6.23;98.85;91802.56;5109643;28;20245;-70
2023/12/14 00:30:47;;;;;;;21.70;16.93;;;;;;;6.35;97.60;91805.63;5114857;28;20171;-71
2023/12/14 00:33:13;;;;;;;22.40;18.00;;;;;;;6.42;97.44;91796.47;5122211;28;20241;-70
2023/12/14 00:35:38;;;;;;;21.87;18.53;;;;;;;6.46;97.34;91804.44;5108999;28;20244;-70
2023/12/14 00:38:03;;;;;;;19.43;17.60;;;;;;;6.57;96.70;91783.34;5106280;28;20227;-70
2023/12/14 00:40:29;;;;;;;19.97;17.80;;;;;;;6.54;96.28;91793.50;5111023;28;20203;-69
2023/12/14 00:42:54;;;;;;;19.77;17.87;;;;;;;6.54;96.13;91788.31;5109448;28;20223;-70
2023/12/14 00:45:19;;;;;;;19.37;17.30;;;;;;;6.46;96.06;91776.72;5110160;28;20219;-70
2023/12/14 00:47:45;;;;;;;22.97;20.60;;;;;;;6.15;99.88;91800.56;5109434;28;20216;-70
2023/12/14 00:50:10;;;;;;;19.70;17.60;;;;;;;6.30;98.68;91790.84;5110284;28;20220;-71
2023/12/14 00:52:36;;;;;;;21.07;18.33;;;;;;;6.36;98.67;91794.19;5109483;28;20922;-70
2023/12/14 00:55:01;;;;;;;23.23;18.40;;;;;;;6.35;98.06;91790.06;5110261;28;20196;-71
2023/12/14 00:57:26;;;;;;;25.23;18.77;;;;;;;6.38;98.25;91794.69;5109694;28;20176;-70
2023/12/14 00:59:52;;;;;;;22.47;18.60;;;;;;;6.58;96.51;91784.88;5109720;28;20216;-70
2023/12/14 01:02:17;;;;;;;22.63;18.20;;;;;;;6.17;97.75;91775.16;5110107;28;20248;-71
2023/12/14 01:04:43;;;;;;;22.10;18.83;;;;;;;5.97;99.56;91778.69;5111671;28;20215;-71
2023/12/14 01:07:08;;;;;;;20.97;18.57;;;;;;;6.29;98.41;91797.09;5109740;28;20198;-71
2023/12/14 01:09:34;;;;;;;22.50;18.97;;;;;;;6.28;98.53;91761.88;5109514;28;20216;-71
2023/12/14 01:11:59;;;;;;;22.57;17.43;;;;;;;6.35;98.06;91785.63;5109737;28;20247;-70
2023/12/14 01:14:25;;;;;;;23.67;19.93;;;;;;;5.44;99.46;91704.47;5109614;28;20234;-70
2023/12/14 01:16:50;;;;;;;19.60;17.30;;;;;;;6.34;97.72;91804.03;5109621;28;20199;-70
2023/12/14 01:19:15;;;;;;;20.97;17.67;;;;;;;6.30;98.07;91787.50;5108984;28;20212;-70
2023/12/14 01:21:41;;;;;;;21.10;18.93;;;;;;;5.93;98.63;91745.84;5109500;28;20176;-70
2023/12/14 01:24:06;;;;;;;23.23;18.13;;;;;;;6.41;97.67;91788.97;5091566;28;20224;-70
2023/12/14 01:26:31;;;;;;;20.03;17.90;;;;;;;6.44;97.55;91763.25;5107935;28;20192;-70
2023/12/14 01:28:58;;;;;;;20.80;18.60;;;;;;;6.22;98.55;91794.06;5109641;28;20223;-70
2023/12/14 01:31:24;;;;;;;24.63;17.73;;;;;;;6.26;98.50;91789.06;5113657;28;20188;-71
2023/12/14 01:33:50;;;;;;;21.27;17.03;;;;;;;6.22;98.70;91811.41;5113365;28;20246;-71
2023/12/14 01:36:26;;;;;;;22.67;19.47;;;;;;;6.47;97.49;91778.25;5113577;28;20180;-71
2023/12/14 01:38:52;;;;;;;19.30;17.07;;;;;;;6.08;99.37;91784.56;5114650;28;20924;-71
2023/12/14 01:41:18;;;;;;;21.40;17.87;;;;;;;6.35;98.84;91784.88;5113898;28;20220;-70
2023/12/14 01:43:43;;;;;;;21.03;17.37;;;;;;;6.22;98.71;91801.81;5112946;28;20257;-71
2023/12/14 01:46:09;;;;;;;18.57;16.57;;;;;;;6.53;97.30;91799.75;5113620;28;20373;-70
2023/12/14 01:48:34;;;;;;;18.47;16.57;;;;;;;6.36;98.12;91784.59;5112767;28;20224;-70
2023/12/14 01:51:00;;;;;;;19.63;17.63;;;;;;;6.34;97.49;91778.91;5113432;28;20190;-71
2023/12/14 01:53:26;;;;;;;17.80;16.00;;;;;;;6.22;98.59;91801.03;5110867;28;20260;-70
2023/12/14 01:55:51;;;;;;;18.33;16.67;;;;;;;6.48;97.78;91771.25;5106593;28;20180;-71
2023/12/14 01:58:16;;;;;;;19.47;17.40;;;;;;;6.07;99.33;91803.75;5112321;28;20231;-71
2023/12/14 02:00:53;;;;;;;18.47;16.60;;;;;;;6.43;98.71;91787.63;5113072;28;20192;-71
2023/12/14 02:03:19;;;;;;;18.17;16.37;;;;;;;6.57;97.70;91782.56;5112444;28;20228;-71
2023/12/14 02:05:44;;;;;;;18.13;16.43;;;;;;;6.44;98.81;91765.09;5114091;28;20187;-71
2023/12/14 02:08:09;;;;;;;22.43;15.57;;;;;;;6.42;98.21;91800.88;5112300;28;20216;-71
2023/12/14 02:10:35;;;;;;;17.87;15.97;;;;;;;6.68;96.77;91770.31;5112934;28;20191;-71
2023/12/14 02:13:03;;;;;;;20.37;15.53;;;;;;;6.54;97.01;91742.44;5112347;28;20272;-72
2023/12/14 02:15:29;;;;;;;18.00;16.43;;;;;;;6.61;96.91;91752.47;5095023;28;20192;-71
2023/12/14 02:17:54;;;;;;;16.10;14.60;;;;;;;6.63;96.77;91765.91;5112351;28;20224;-71
2023/12/14 02:20:20;;;;;;;17.83;16.20;;;;;;;6.57;96.27;91749.66;5110417;28;20187;-70
2023/12/14 02:22:55;;;;;;;16.77;14.97;;;;;;;6.78;95.86;91736.47;5112098;28;20291;-71
2023/12/14 02:25:22;;;;;;;17.03;15.23;;;;;;;6.57;96.58;91743.69;5113062;28;20208;-70
2023/12/14 02:27:48;;;;;;;16.67;15.17;;;;;;;6.58;96.13;91750.44;5112383;28;20302;-71
2023/12/14 02:30:14;;;;;;;16.97;15.37;;;;;;;6.45;96.68;91744.06;5112849;28;20244;-69
2023/12/14 02:32:40;;;;;;;18.67;15.73;;;;;;;6.57;96.63;91781.81;5111964;28;20232;-70
2023/12/14 02:35:06;;;;;;;15.20;13.80;;;;;;;6.64;95.83;91764.88;5112531;28;20187;-71
2023/12/14 02:37:33;;;;;;;16.27;14.77;;;;;;;6.44;96.46;91747.69;5112083;28;20188;-73
2023/12/14 02:40:00;;;;;;;15.87;14.27;;;;;;;7.00;94.22;91768.66;5111458;28;20188;-73
2023/12/14 02:42:25;;;;;;;16.13;14.63;;;;;;;6.86;94.77;91738.47;5111612;28;20192;-73
2023/12/14 02:44:51;;;;;;;16.30;14.70;;;;;;;6.62;95.98;91774.75;5112101;28;20214;-73
2023/12/14 02:47:16;;;;;;;15.47;13.83;;;;;;;6.73;97.29;91770.22;5112542;28;20184;-73
2023/12/14 02:49:43;;;;;;;15.93;14.53;;;;;;;6.57;97.08;91789.59;5111402;28;20303;-73
2023/12/14 02:52:09;;;;;;;16.57;14.97;;;;;;;6.89;95.74;91767.22;5112172;28;20164;-73
2023/12/14 02:54:34;;;;;;;16.37;14.70;;;;;;;7.06;94.77;91792.72;5110879;28;20247;-74
2023/12/14 02:57:00;;;;;;;15.67;14.17;;;;;;;6.88;94.47;91791.59;5112335;28;20803;-73
2023/12/14 02:59:25;;;;;;;15.23;13.80;;;;;;;7.07;94.49;91776.88;5111684;28;20776;-73
2023/12/14 03:01:50;;;;;;;15.77;14.27;;;;;;;7.06;94.12;91780.53;5111940;28;20229;-73
2023/12/14 03:04:16;;;;;;;15.17;13.60;;;;;;;7.05;94.14;91783.38;5111708;28;20222;-73
2023/12/14 03:06:41;;;;;;;18.30;16.37;;;;;;;7.03;94.80;91785.47;5111444;28;20177;-73
2023/12/14 03:09:06;;;;;;;18.97;16.97;;;;;;;6.81;95.03;91759.25;5102628;28;20288;-74
2023/12/14 03:11:32;;;;;;;17.10;15.33;;;;;;;6.91;95.62;91795.47;5111383;28;20213;-73
2023/12/14 03:13:57;;;;;;;14.97;13.57;;;;;;;7.15;94.10;91781.44;5093541;28;20212;-72
2023/12/14 03:16:22;;;;;;;14.97;13.57;;;;;;;7.18;94.16;91767.91;5111545;28;20284;-73
2023/12/14 03:18:52;;;;;;;14.47;13.07;;;;;;;7.18;93.31;91746.38;5111223;28;20227;-73
2023/12/14 03:21:17;;;;;;;13.90;12.70;;;;;;;7.18;93.09;91738.56;5111497;28;20218;-73
2023/12/14 03:23:43;;;;;;;14.37;13.17;;;;;;;6.81;95.72;91736.69;5093549;28;20227;-73
2023/12/14 03:26:08;;;;;;;13.43;12.23;;;;;;;7.25;93.49;91739.03;5111634;28;20190;-73
2023/12/14 03:28:34;;;;;;;15.13;13.83;;;;;;;6.92;94.97;91748.50;5111036;28;20215;-73
2023/12/14 03:31:00;;;;;;;12.90;11.77;;;;;;;7.43;92.63;91754.63;5094743;28;20180;-74
2023/12/14 03:33:25;;;;;;;13.77;12.47;;;;;;;7.68;90.88;91764.66;5110719;28;20222;-74
2023/12/14 03:35:50;;;;;;;13.40;12.23;;;;;;;7.51;91.43;91761.00;5108228;28;20183;-73
2023/12/14 03:38:16;;;;;;;13.50;12.50;;;;;;;7.78;89.75;91735.19;5109151;28;20219;-74
2023/12/14 03:40:41;;;;;;;12.93;12.00;;;;;;;7.77;89.71;91731.00;5111376;28;20188;-73
2023/12/14 03:43:07;;;;;;;13.47;12.47;;;;;;;7.79;89.73;91734.13;5110365;28;20216;-73
2023/12/14 03:45:32;;;;;;;14.27;13.27;;;;;;;7.65;89.23;91741.84;5111442;28;20199;-74
2023/12/14 03:47:58;;;;;;;14.17;13.07;;;;;;;7.71;89.86;91740.72;5110733;28;20247;-73
2023/12/14 03:50:23;;;;;;;14.70;13.60;;;;;;;7.86;89.39;91729.34;5111007;28;20575;-73
2023/12/14 03:52:49;;;;;;;13.13;12.17;;;;;;;7.93;88.13;91735.72;5096311;28;20216;-73
2023/12/14 03:55:17;;;;;;;11.80;11.10;;;;;;;8.81;82.82;91701.72;5111345;28;20202;-73
2023/12/14 03:57:42;;;;;;;13.60;12.50;;;;;;;8.67;84.67;91715.78;5109710;28;20224;-74
2023/12/14 04:00:16;;;;;;;9.40;8.50;;;;;;;9.32;82.08;91720.47;5111109;28;20188;-73
2023/12/14 04:02:42;;;;;;;10.10;9.70;;;;;;;12.76;64.15;91722.97;5110453;28;20237;-73
2023/12/14 04:05:10;;;;;;;10.03;9.63;;;;;;;12.76;64.92;91728.94;5111023;28;20188;-74
2023/12/14 04:07:40;;;;;;;9.60;8.97;;;;;;;13.56;59.74;91714.91;5110237;28;20183;-73
2023/12/14 04:10:14;;;;;;;12.50;11.60;;;;;;;10.17;72.63;91753.56;5110954;28;20192;-73
2023/12/14 04:12:40;;;;;;;12.47;11.57;;;;;;;9.65;75.97;91749.72;5109278;28;20222;-74
2023/12/14 04:15:07;;;;;;;13.20;12.17;;;;;;;8.80;80.99;91741.03;5110335;28;20180;-74
2023/12/14 04:17:33;;;;;;;15.57;14.27;;;;;;;8.33;83.95;91733.56;5109418;28;20188;-74
2023/12/14 04:19:59;;;;;;;12.37;11.57;;;;;;;8.52;83.88;91755.06;5110461;28;20203;-73
2023/12/14 04:22:24;;;;;;;14.07;12.83;;;;;;;8.18;84.58;91734.53;5109777;28;20194;-74
2023/12/14 04:24:50;;;;;;;14.33;13.33;;;;;;;8.49;84.51;91771.25;5110930;28;20221;-74
2023/12/14 04:27:15;;;;;;;13.27;12.27;;;;;;;8.57;83.70;91757.59;5110603;28;20176;-74
2023/12/14 04:29:41;;;;;;;14.00;12.90;;;;;;;8.31;84.94;91757.25;5109973;28;20247;-74
2023/12/14 04:32:06;;;;;;;13.37;12.23;;;;;;;8.02;85.88;91741.81;5110282;28;20188;-73
2023/12/14 04:34:31;;;;;;;15.03;13.83;;;;;;;7.90;86.88;91738.88;5109369;28;20227;-73
2023/12/14 04:36:57;;;;;;;13.83;12.57;;;;;;;7.91;87.18;91735.22;5102894;28;20236;-75
2023/12/14 04:39:26;;;;;;;14.70;13.50;;;;;;;7.66;87.70;91763.38;5115979;28;20237;-74
2023/12/14 04:41:52;;;;;;;17.70;16.20;;;;;;;7.54;89.38;91766.41;5109076;28;20196;-73
2023/12/14 04:44:18;;;;;;;16.20;14.67;;;;;;;7.54;89.80;91747.47;5109266;28;20246;-74
2023/12/14 04:46:44;;;;;;;16.17;14.77;;;;;;;7.96;87.99;91745.53;5107376;28;20270;-74
2023/12/14 04:49:10;;;;;;;13.63;12.53;;;;;;;7.67;90.30;91724.13;5105195;28;20307;-76
2023/12/14 04:51:35;;;;;;;9.90;9.50;;;;;;;11.34;70.62;91751.88;5110198;28;20188;-75
2023/12/14 04:54:00;;;;;;;13.50;12.50;;;;;;;10.85;71.20;91759.19;5109000;28;20228;-73
2023/12/14 04:56:26;;;;;;;13.87;12.97;;;;;;;9.33;78.92;91735.03;5109268;28;20188;-74
2023/12/14 04:58:51;;;;;;;14.30;13.17;;;;;;;9.20;79.83;91748.06;5109600;28;20292;-73
2023/12/14 05:01:16;;;;;;;13.97;12.77;;;;;;;8.68;82.55;91764.16;5110047;28;20834;-76
2023/12/14 05:03:42;;;;;;;9.37;8.77;;;;;;;9.44;77.63;91751.22;5107444;28;20224;-76
2023/12/14 05:06:07;;;;;;;9.80;9.30;;;;;;;13.00;63.72;91746.78;5105919;28;20199;-73
2023/12/14 05:08:33;;;;;;;9.87;9.27;;;;;;;13.17;60.71;91751.97;5108326;28;20780;-76
2023/12/14 05:10:58;;;;;;;12.77;11.87;;;;;;;13.69;57.94;91762.97;5098870;28;20204;-77
2023/12/14 05:13:24;;;;;;;9.53;8.93;;;;;;;13.50;59.30;91752.91;5108373;28;20239;-77
2023/12/14 05:15:51;;;;;;;11.93;11.13;;;;;;;13.09;60.69;91747.50;5103920;28;20192;-75
2023/12/14 05:18:17;;;;;;;12.80;11.70;;;;;;;11.74;66.63;91759.66;5108200;28;20223;-77
2023/12/14 05:20:42;;;;;;;13.90;12.77;;;;;;;11.61;67.49;91748.22;5108881;28;20193;-83
2023/12/14 05:23:08;;;;;;;10.53;9.73;;;;;;;11.21;67.57;91747.50;5109368;28;20616;-83
2023/12/14 05:25:34;;;;;;;9.47;8.93;;;;;;;11.93;66.37;91747.06;5110161;28;20180;-81
2023/12/14 05:27:59;;;;;;;8.67;8.27;;;;;;;14.07;57.18;91746.06;5087868;28;20296;-83
2023/12/14 05:30:24;;;;;;;8.97;8.57;;;;;;;14.41;55.29;91739.81;5097942;28;20207;-79
2023/12/14 05:32:49;;;;;;;10.53;9.93;;;;;;;14.68;54.19;91762.13;5106066;28;20237;-79
2023/12/14 05:35:15;;;;;;;8.43;8.03;;;;;;;14.60;56.01;91765.59;5110405;28;20212;-76
2023/12/14 05:37:41;;;;;;;9.33;8.80;;;;;;;14.62;55.16;91766.00;5108845;28;20226;-76
2023/12/14 05:40:08;;;;;;;9.43;8.90;;;;;;;15.10;51.97;91755.63;5109790;28;20180;-77
2023/12/14 05:42:33;;;;;;;10.43;9.60;;;;;;;15.10;58.26;91766.16;5108974;28;20227;-71
2023/12/14 05:44:58;;;;;;;9.63;9.03;;;;;;;15.11;53.40;91796.63;5109323;28;20253;-71
2023/12/14 05:47:26;;;;;;;8.73;8.33;;;;;;;14.65;55.32;91783.75;5108150;28;20183;-70
2023/12/14 05:49:51;;;;;;;9.10;8.60;;;;;;;14.70;54.71;91800.09;5108449;28;20196;-71
2023/12/14 05:52:17;;;;;;;9.70;9.03;;;;;;;14.96;53.03;91792.00;5108898;28;20204;-71
2023/12/14 05:54:42;;;;;;;10.73;9.97;;;;;;;14.82;54.51;91773.88;5090070;28;20237;-71
2023/12/14 05:57:07;;;;;;;10.50;10.00;;;;;;;14.59;54.45;91780.56;5108700;28;20198;-71
2023/12/14 05:59:33;;;;;;;8.60;8.30;;;;;;;13.89;56.43;91797.13;5107912;28;20253;-71
2023/12/14 06:01:59;;;;;;;15.43;14.23;;;;;;;10.81;68.26;91784.34;5108893;28;20196;-71
2023/12/14 06:04:26;;;;;;;15.87;14.47;;;;;;;10.41;71.82;91780.88;5103725;28;20220;-71
2023/12/14 06:06:51;;;;;;;14.93;13.77;;;;;;;10.26;72.65;91777.84;5101342;28;20937;-71
2023/12/14 06:09:19;;;;;;;15.63;14.40;;;;;;;9.92;73.78;91777.56;5107806;28;20220;-71
2023/12/14 06:11:44;;;;;;;14.87;13.47;;;;;;;8.74;80.93;91784.59;5108496;28;20200;-71
2023/12/14 06:14:10;;;;;;;15.20;13.77;;;;;;;9.08;79.63;91779.03;5107000;28;20247;-71
2023/12/14 06:16:35;;;;;;;19.80;17.83;;;;;;;8.60;81.57;91777.81;5111341;28;20187;-71
2023/12/14 06:19:00;;;;;;;14.20;13.00;;;;;;;8.81;81.31;91784.22;5112272;28;20216;-71
2023/12/14 06:21:28;;;;;;;13.53;12.53;;;;;;;8.91;80.72;91797.03;5094759;28;20279;-70
2023/12/14 06:23:54;;;;;;;15.13;13.73;;;;;;;8.61;82.31;91780.13;5111839;28;20216;-71
2023/12/14 06:26:19;;;;;;;15.47;13.87;;;;;;;8.94;81.32;91799.06;5112713;28;20192;-70
2023/12/14 06:28:45;;;;;;;13.87;12.97;;;;;;;9.20;79.26;91792.34;5111807;28;20215;-71
2023/12/14 06:31:14;;;;;;;13.80;12.70;;;;;;;9.41;79.03;91799.50;5112780;28;20195;-70
2023/12/14 06:33:40;;;;;;;14.13;13.03;;;;;;;8.89;80.79;91807.75;5111832;28;20228;-71
2023/12/14 06:36:07;;;;;;;13.33;12.40;;;;;;;9.53;78.64;91817.22;5112440;28;20188;-71
2023/12/14 06:38:33;;;;;;;14.10;13.00;;;;;;;10.43;74.71;91807.47;5117066;28;20230;-70
2023/12/14 06:40:58;;;;;;;12.37;11.50;;;;;;;10.21;76.03;91807.44;5118893;28;20243;-71
2023/12/14 06:43:23;;;;;;;13.50;12.50;;;;;;;10.33;74.94;91823.38;5111410;28;20219;-71
2023/12/14 06:45:49;;;;;;;15.33;14.17;;;;;;;9.74;78.05;91824.31;5112300;28;20211;-71
2023/12/14 06:48:14;;;;;;;14.17;13.07;;;;;;;9.98;76.10;91829.31;5111269;28;20227;-77
2023/12/14 06:50:39;;;;;;;13.43;12.13;;;;;;;9.44;78.40;91803.34;5111307;28;20173;-76
2023/12/14 06:53:05;;;;;;;14.70;13.20;;;;;;;9.45;78.11;91823.09;5111666;28;20231;-73
2023/12/14 06:55:30;;;;;;;14.90;13.60;;;;;;;9.58;78.15;91828.31;5108903;28;20176;-73
2023/12/14 06:57:55;;;;;;;13.93;12.73;;;;;;;8.91;80.69;91841.28;5110167;28;20224;-73
2023/12/14 07:00:22;;;;;;;16.13;14.63;;;;;;;9.25;80.02;91847.72;5111470;28;20196;-74
2023/12/14 07:02:47;;;;;;;14.57;13.47;;;;;;;8.84;81.10;91853.91;5106570;28;20238;-73
2023/12/14 07:05:13;;;;;;;15.93;14.43;;;;;;;9.25;80.81;91818.28;5107846;28;20222;-73
2023/12/14 07:07:39;;;;;;;15.90;14.67;;;;;;;8.99;81.05;91809.41;5111183;28;20230;-74
2023/12/14 07:10:04;;;;;;;15.37;13.83;;;;;;;9.00;82.35;91849.97;5103955;28;20180;-74
2023/12/14 07:12:30;;;;;;;15.23;13.93;;;;;;;9.42;80.88;91857.53;5093245;28;20199;-75
2023/12/14 07:14:55;;;;;;;15.67;14.07;;;;;;;9.56;79.91;91856.50;5111706;28;20180;-75
2023/12/14 07:17:20;;;;;;;15.80;14.60;;;;;;;9.34;80.13;91803.53;5110834;28;20250;-75
2023/12/14 07:19:46;;;;;;;16.27;15.00;;;;;;;9.72;79.46;91849.16;5111535;28;20198;-75
2023/12/14 07:22:11;;;;;;;15.53;14.23;;;;;;;9.51;80.29;91845.38;5111403;28;20191;-78
2023/12/14 07:24:36;;;;;;;15.47;14.13;;;;;;;9.81;78.00;91839.56;5111107;28;20208;-75
2023/12/14 07:27:02;;;;;;;17.87;16.33;;;;;;;9.49;79.28;91857.94;5111297;28;20192;-75
2023/12/14 07:29:28;;;;;;;14.30;13.20;;;;;;;10.02;76.57;91851.13;5110815;28;20292;-74
2023/12/14 07:31:53;;;;;;;18.43;17.00;;;;;;;9.74;78.21;91880.91;5110910;28;20188;-76
2023/12/14 07:34:20;;;;;;;15.57;14.27;;;;;;;10.07;76.93;91866.69;5110813;28;20239;-76
2023/12/14 07:36:45;;;;;;;13.37;12.27;;;;;;;9.71;79.29;91866.63;5111808;28;20185;-76
2023/12/14 07:39:10;;;;;;;14.17;13.03;;;;;;;10.36;77.20;91874.16;5121083;28;20306;-75
2023/12/14 07:41:36;;;;;;;13.10;12.17;;;;;;;10.14;77.24;91871.50;5099418;28;20196;-72
2023/12/14 07:44:01;;;;;;;13.73;12.60;;;;;;;10.29;76.05;91858.91;5111099;28;20235;-72
2023/12/14 07:46:26;;;;;;;12.57;11.77;;;;;;;10.80;73.38;91893.22;5109780;28;20251;-72
2023/12/14 07:48:52;;;;;;;12.47;11.57;;;;;;;10.71;76.41;91889.78;5110745;28;20234;-72
2023/12/14 07:51:17;;;;;;;13.73;12.73;;;;;;;10.60;74.96;91856.41;5111001;28;20188;-73
2023/12/14 07:53:42;;;;;;;13.03;11.80;;;;;;;10.42;75.69;91894.63;5110762;28;20223;-73
2023/12/14 07:56:27;;;;;;;12.53;11.63;;;;;;;10.89;72.69;91891.47;5111591;28;20181;-72
2023/12/14 07:58:53;;;;;;;12.90;12.07;;;;;;;11.00;74.20;91892.75;5110179;28;20239;-73
2023/12/14 08:01:18;;;;;;;12.77;11.63;;;;;;;10.95;74.50;91886.88;5110410;28;20205;-73
2023/12/14 08:03:44;;;;;;;13.83;12.73;;;;;;;11.05;72.85;91905.69;5108870;28;20221;-73
2023/12/14 08:06:09;;;;;;;13.90;12.83;;;;;;;11.24;71.91;91890.59;5109908;28;20207;-72
2023/12/14 08:08:35;;;;;;;15.03;13.73;;;;;;;11.17;73.33;91886.88;5109224;28;20244;-73
2023/12/14 08:11:00;;;;;;;15.37;12.30;;;;;;;11.30;73.94;91899.84;5109761;28;20898;-73
2023/12/14 08:13:26;;;;;;;13.50;12.60;;;;;;;11.82;70.86;91907.94;5109141;28;20314;-73
2023/12/14 08:15:51;;;;;;;13.30;12.40;;;;;;;11.85;70.43;91891.66;5109626;28;20955;-73
2023/12/14 08:18:17;;;;;;;12.43;11.43;;;;;;;11.67;70.86;91890.84;5110082;28;20232;-73
2023/12/14 08:20:43;;;;;;;12.70;11.60;;;;;;;11.54;71.57;91886.44;5110678;28;20227;-73
2023/12/14 08:23:09;;;;;;;12.90;11.90;;;;;;;11.80;70.21;91889.94;5109939;28;20231;-73
2023/12/14 08:25:34;;;;;;;12.83;11.77;;;;;;;11.50;72.42;91905.66;5105026;28;20216;-71
2023/12/14 08:27:59;;;;;;;12.70;11.90;;;;;;;11.57;70.02;91911.19;5109858;28;20227;-73
2023/12/14 08:30:25;;;;;;;13.53;12.13;;;;;;;11.56;70.95;91899.22;5105163;28;20189;-72
2023/12/14 08:32:50;;;;;;;13.17;12.07;;;;;;;11.48;71.38;91892.88;5109645;28;20288;-73
2023/12/14 08:35:15;;;;;;;13.77;12.77;;;;;;;11.44;72.28;91917.31;5105422;28;20195;-73
2023/12/14 08:37:41;;;;;;;14.17;13.07;;;;;;;11.63;71.80;91920.47;5108869;28;20212;-73
2023/12/14 08:40:07;;;;;;;12.60;11.60;;;;;;;11.85;70.48;91915.97;5106731;28;20220;-73
2023/12/14 08:42:33;;;;;;;13.60;12.70;;;;;;;11.90;71.72;91915.06;5109651;28;20240;-74
2023/12/14 08:44:58;;;;;;;12.67;11.57;;;;;;;11.69;71.23;91908.84;5110087;28;20180;-73
2023/12/14 08:47:24;;;;;;;13.20;12.20;;;;;;;12.08;70.63;91911.41;5109540;28;20215;-73
2023/12/14 08:49:49;;;;;;;12.87;11.87;;;;;;;12.14;70.08;91926.66;5110616;28;20188;-73
2023/12/14 08:52:15;;;;;;;12.80;11.83;;;;;;;12.03;69.96;91914.19;5110140;28;20184;-73
2023/12/14 08:54:43;;;;;;;12.43;11.53;;;;;;;12.27;69.76;91917.94;5091485;28;20217;-73
2023/12/14 08:57:08;;;;;;;13.73;12.53;;;;;;;12.64;67.46;91927.84;5109694;28;20234;-73
2023/12/14 08:59:34;;;;;;;12.67;11.87;;;;;;;12.24;68.81;91920.38;5104370;28;20239;-73
2023/12/14 09:01:59;;;;;;;12.53;11.53;;;;;;;12.33;68.65;91905.47;5105048;28;20184;-73
2023/12/14 09:04:25;;;;;;;15.27;11.90;;;;;;;12.43;70.42;91928.75;5105775;28;20221;-73
2023/12/14 09:06:51;;;;;;;14.10;12.83;;;;;;;12.47;69.45;91913.94;5109571;28;20851;-73
2023/12/14 09:09:18;;;;;;;13.67;12.47;;;;;;;12.74;68.31;91922.31;5109553;28;20243;-73
2023/12/14 09:11:44;;;;;;;13.70;12.70;;;;;;;12.81;67.30;91929.69;5109521;28;20241;-73
2023/12/14 09:14:10;;;;;;;13.60;12.60;;;;;;;12.81;67.87;91927.06;5109624;28;20220;-73
2023/12/14 09:16:35;;;;;;;12.77;11.73;;;;;;;12.70;67.71;91913.50;5106274;28;20232;-73
2023/12/14 09:19:01;;;;;;;13.17;11.93;;;;;;;12.99;65.81;91915.53;5109257;28;20252;-73
2023/12/14 09:21:26;;;;;;;13.50;12.60;;;;;;;13.03;65.36;91905.22;5109665;28;20190;-73
2023/12/14 09:23:53;;;;;;;12.10;11.20;;;;;;;12.71;67.77;91922.16;5109028;28;20231;-73
2023/12/14 09:26:19;;;;;;;11.90;11.13;;;;;;;13.14;65.84;91899.34;5110502;28;20199;-73
2023/12/14 09:28:44;;;;;;;12.37;11.30;;;;;;;12.47;70.16;91908.72;5109131;28;20233;-73
2023/12/14 09:31:09;;;;;;;12.10;11.10;;;;;;;12.53;67.66;91917.97;5112454;28;20257;-72
2023/12/14 09:33:35;;;;;;;11.23;10.43;;;;;;;13.27;66.60;91902.88;5109248;28;20222;-73
2023/12/14 09:36:01;;;;;;;11.93;10.83;;;;;;;12.42;68.08;91919.34;5109756;28;20247;-72
2023/12/14 09:38:26;;;;;;;13.80;12.60;;;;;;;12.87;67.72;91923.25;5112359;28;20218;-73
2023/12/14 09:40:51;;;;;;;11.73;10.83;;;;;;;13.48;65.90;91917.63;5109786;28;20210;-73
2023/12/14 09:43:17;;;;;;;12.27;10.60;;;;;;;13.25;67.45;91907.66;5108945;28;21114;-73
2023/12/14 09:45:44;;;;;;;11.63;10.93;;;;;;;12.82;68.52;91920.78;5109527;28;20277;-73
2023/12/14 09:48:11;;;;;;;12.27;10.93;;;;;;;12.87;66.34;91926.63;5104534;28;20236;-73
2023/12/14 09:50:39;;;;;;;11.67;10.77;;;;;;;12.85;67.35;91935.88;5104219;28;20190;-73
2023/12/14 09:53:04;;;;;;;11.57;10.77;;;;;;;12.80;67.20;91947.28;5112783;28;20231;-72
2023/12/14 09:55:31;;;;;;;11.37;10.47;;;;;;;12.73;66.35;91948.81;5113700;28;20192;-74
2023/12/14 09:57:56;;;;;;;11.13;10.53;;;;;;;13.19;65.94;91948.22;5112282;28;20230;-74
2023/12/14 10:00:39;;;;;;;11.90;11.10;;;;;;;13.67;64.04;91951.38;5113479;28;20205;-73
2023/12/14 10:03:26;;;;;;;11.90;11.10;;;;;;;12.66;66.14;91970.22;5100939;28;20243;-73
2023/12/14 10:05:52;;;;;;;10.90;10.10;;;;;;;12.68;67.25;91951.56;5112814;28;20221;-73
2023/12/14 10:08:18;;;;;;;12.17;11.37;;;;;;;13.34;65.70;91932.78;5112685;28;20226;-73
2023/12/14 10:10:44;;;;;;;14.10;11.13;;;;;;;13.51;64.13;91922.25;5113199;28;20211;-73
2023/12/14 10:13:10;;;;;;;11.20;10.17;;;;;;;13.45;64.06;91934.00;5089649;28;20300;-74
2023/12/14 10:15:47;;;;;;;11.77;10.87;;;;;;;13.47;63.19;91939.69;5112743;28;20179;-73
2023/12/14 10:18:23;;;;;;;11.23;10.03;;;;;;;13.46;64.98;91927.69;5112577;28;20218;-74
2023/12/14 10:20:48;;;;;;;10.90;10.23;;;;;;;13.25;64.80;91932.03;5112910;28;20178;-73
2023/12/14 10:23:13;;;;;;;10.97;10.20;;;;;;;13.48;64.31;91928.13;5099446;28;20254;-74
2023/12/14 10:25:39;;;;;;;10.80;10.20;;;;;;;13.70;63.76;91903.53;5113198;28;20188;-73
2023/12/14 10:28:04;;;;;;;12.30;11.33;;;;;;;13.68;64.84;91914.31;5112167;28;20227;-73
2023/12/14 10:30:30;;;;;;;12.43;11.40;;;;;;;13.43;64.44;91919.66;5112739;28;20218;-73
2023/12/14 10:32:56;;;;;;;12.50;11.37;;;;;;;13.68;62.23;91922.19;5112247;28;20238;-74
2023/12/14 10:35:22;;;;;;;11.83;11.10;;;;;;;13.33;64.69;91940.94;5112678;28;20296;-74
2023/12/14 10:37:50;;;;;;;12.23;11.33;;;;;;;13.61;63.48;91948.16;5111943;28;20234;-73
2023/12/14 10:40:15;;;;;;;12.43;11.53;;;;;;;13.64;63.08;91938.88;5119332;28;20195;-73
2023/12/14 10:42:43;;;;;;;12.50;11.40;;;;;;;13.46;65.27;91958.38;5111480;28;20278;-73
2023/12/14 10:45:12;;;;;;;13.10;12.10;;;;;;;12.96;66.55;91945.72;5112671;28;20274;-73
2023/12/14 10:47:42;;;;;;;13.03;11.87;;;;;;;13.18;66.88;91947.47;5111631;28;20230;-73
2023/12/14 10:50:11;;;;;;;12.33;10.70;;;;;;;13.02;66.73;91951.63;5112460;28;20196;-73
2023/12/14 10:52:39;;;;;;;14.00;12.70;;;;;;;12.45;68.71;91963.25;5111639;28;20191;-73
2023/12/14 10:55:07;;;;;;;13.93;12.50;;;;;;;12.55;69.23;91974.19;5111679;28;20197;-73
2023/12/14 10:57:34;;;;;;;13.93;12.50;;;;;;;12.45;69.87;91976.34;5111350;28;20191;-73
2023/12/14 11:00:03;;;;;;;13.77;12.53;;;;;;;12.06;71.96;91977.13;5112390;28;20219;-73
2023/12/14 11:02:29;;;;;;;15.37;13.77;;;;;;;11.71;73.31;91962.38;5116309;28;20181;-73
2023/12/14 11:05:05;;;;;;;16.00;13.77;;;;;;;11.87;73.83;91983.66;5095482;28;20200;-73
2023/12/14 11:07:47;;;;;;;15.83;14.20;;;;;;;11.44;79.59;91967.72;5110657;28;20337;-73
2023/12/14 11:10:13;;;;;;;15.27;13.67;;;;;;;11.25;81.54;91961.94;5112077;28;20188;-73
2023/12/14 11:12:55;;;;;;;16.57;14.97;;;;;;;11.19;83.36;91974.31;5111286;28;20290;-73
2023/12/14 11:15:22;;;;;;;16.27;14.57;;;;;;;11.12;84.45;91963.53;5101448;28;20184;-72
2023/12/14 11:18:10;;;;;;;17.57;15.30;;;;;;;11.15;85.24;91983.06;5103959;28;20231;-73